createdAt,value
2017-07-29T00:00:21.866Z,54.21
2017-07-29T00:01:31.507Z,54.21
2017-07-29T00:02:41.448Z,54.21
2017-07-29T00:03:51.376Z,53.92
2017-07-29T00:05:01.302Z,53.83
2017-07-29T00:06:10.629Z,54.02
2017-07-29T00:07:20.862Z,53.83
2017-07-29T00:08:30.790Z,54.14
2017-07-29T00:09:41.011Z,54.05
2017-07-29T00:10:50.947Z,53.95
2017-07-29T00:12:00.564Z,54.33
2017-07-29T00:13:10.489Z,53.37
2017-07-29T00:14:20.420Z,53.47
2017-07-29T00:15:30.336Z,54.24
2017-07-29T00:16:40.566Z,54.24
2017-07-29T00:17:50.178Z,53.56
2017-07-29T00:19:00.408Z,53.85
2017-07-29T00:20:10.647Z,54.05
2017-07-29T00:21:20.880Z,53.75
2017-07-29T00:22:30.797Z,54.05
2017-07-29T00:23:40.756Z,54.14
2017-07-29T00:24:50.671Z,54.05
2017-07-29T00:26:00.896Z,54.05
2017-07-29T00:27:10.817Z,54.14
2017-07-29T00:28:20.741Z,54.14
2017-07-29T00:29:30.661Z,53.85
2017-07-29T00:30:40.620Z,53.75
2017-07-29T00:31:50.535Z,53.85
2017-07-29T00:33:00.448Z,53.85
2017-07-29T00:34:10.069Z,53.95
2017-07-29T00:35:20.294Z,53.85
2017-07-29T00:36:30.214Z,53.95
2017-07-29T00:37:39.830Z,53.85
2017-07-29T00:38:49.741Z,54.24
2017-07-29T00:39:59.349Z,53.85
2017-07-29T00:41:09.284Z,53.95
2017-07-29T00:42:18.594Z,53.66
2017-07-29T00:43:28.824Z,53.85
2017-07-29T00:44:38.782Z,53.75
2017-07-29T00:45:48.708Z,53.56
2017-07-29T00:46:58.927Z,53.47
2017-07-29T00:48:08.234Z,53.08
2017-07-29T00:49:18.458Z,52.98
2017-07-29T00:50:28.400Z,53.01
2017-07-29T00:54:10.375Z,53.11
2017-07-29T00:57:52.350Z,53.01
2017-07-29T01:01:34.941Z,52.81
2017-07-29T01:02:44.885Z,52.81
2017-07-29T01:06:28.064Z,52.53
2017-07-29T01:07:37.994Z,53.11
2017-07-29T01:13:53.547Z,52.65
2017-07-29T01:17:35.538Z,52.65
2017-07-29T01:21:18.771Z,52.84
2017-07-29T01:22:28.084Z,52.94
2017-07-29T01:26:10.686Z,52.45
2017-07-29T01:27:20.924Z,52.45
2017-07-29T01:28:30.854Z,52.45
2017-07-29T01:29:40.461Z,52.36
2017-07-29T01:30:50.391Z,52.36
2017-07-29T01:32:00.325Z,52.45
2017-07-29T01:33:10.296Z,52.36
2017-07-29T01:34:19.909Z,52.75
2017-07-29T01:35:29.529Z,52.45
2017-07-29T01:36:39.751Z,52.55
2017-07-29T01:44:10.891Z,52.65
2017-07-29T01:45:20.516Z,52.55
2017-07-29T01:46:30.440Z,52.55
2017-07-29T01:47:40.379Z,52.65
2017-07-29T01:48:50.002Z,52.75
2017-07-29T01:50:00.217Z,52.65
2017-07-29T01:51:10.152Z,52.75
2017-07-29T01:52:20.094Z,52.55
2017-07-29T01:53:30.321Z,52.75
2017-07-29T01:54:40.262Z,52.75
2017-07-29T01:55:50.483Z,52.75
2017-07-29T01:57:00.123Z,52.65
2017-07-29T01:58:10.080Z,52.77
2017-07-29T01:59:19.999Z,52.55
2017-07-29T02:00:29.904Z,52.75
2017-07-29T02:01:40.123Z,52.75
2017-07-29T02:02:50.351Z,52.65
2017-07-29T02:04:00.580Z,52.65
2017-07-29T02:05:10.188Z,52.55
2017-07-29T02:06:20.421Z,52.36
2017-07-29T02:07:30.343Z,52.58
2017-07-29T02:08:39.964Z,52.58
2017-07-29T02:09:49.882Z,52.55
2017-07-29T02:11:00.113Z,52.55
2017-07-29T02:12:09.748Z,52.45
2017-07-29T02:13:19.357Z,52.45
2017-07-29T02:14:28.976Z,52.65
2017-07-29T02:15:38.901Z,52.65
2017-07-29T02:16:49.124Z,52.75
2017-07-29T02:17:59.345Z,52.19
2017-07-29T02:19:09.303Z,52
2017-07-29T02:20:19.247Z,52.09
2017-07-29T02:21:29.495Z,52.09
2017-07-29T02:22:39.456Z,52
2017-07-29T02:23:49.396Z,51.9
2017-07-29T02:24:59.340Z,52.19
2017-07-29T02:26:09.247Z,51.81
2017-07-29T02:27:19.505Z,52.09
2017-07-29T02:28:29.759Z,51.61
2017-07-29T02:29:39.687Z,51.81
2017-07-29T02:30:49.944Z,51.9
2017-07-29T02:31:58.949Z,52
2017-07-29T02:33:08.596Z,51.9
2017-07-29T02:34:18.516Z,51.81
2017-07-29T02:35:28.439Z,51.81
2017-07-29T02:36:38.362Z,51.81
2017-07-29T02:37:48.278Z,51.81
2017-07-29T02:38:58.194Z,52
2017-07-29T02:40:08.104Z,51.81
2017-07-29T02:41:18.384Z,51.71
2017-07-29T02:42:28.294Z,51.9
2017-07-29T02:43:38.525Z,51.81
2017-07-29T02:44:48.753Z,51.81
2017-07-29T02:45:58.681Z,51.9
2017-07-29T02:47:08.927Z,51.9
2017-07-29T02:48:18.854Z,51.81
2017-07-29T02:49:28.777Z,52
2017-07-29T02:50:38.713Z,52
2017-07-29T02:51:48.945Z,52.09
2017-07-29T02:52:58.873Z,52
2017-07-29T02:54:08.813Z,52
2017-07-29T02:55:18.765Z,51.9
2017-07-29T02:56:28.086Z,52.09
2017-07-29T02:57:38.006Z,51.9
2017-07-29T02:58:48.252Z,51.9
2017-07-29T02:59:57.868Z,52
2017-07-29T03:01:07.496Z,52.09
2017-07-29T03:02:16.498Z,51.81
2017-07-29T03:03:26.411Z,51.71
2017-07-29T03:04:35.719Z,51.81
2017-07-29T03:05:45.338Z,51.71
2017-07-29T03:06:55.596Z,51.61
2017-07-29T03:08:05.531Z,52
2017-07-29T03:09:15.457Z,51.71
2017-07-29T03:10:24.784Z,52.09
2017-07-29T03:11:35.003Z,51.81
2017-07-29T03:12:44.941Z,52
2017-07-29T03:13:54.869Z,51.81
2017-07-29T03:15:04.483Z,51.81
2017-07-29T03:16:14.427Z,51.81
2017-07-29T03:17:24.423Z,51.9
2017-07-29T03:18:34.055Z,51.71
2017-07-29T03:19:44.302Z,52
2017-07-29T03:20:54.536Z,52.09
2017-07-29T03:22:04.463Z,51.9
2017-07-29T03:23:14.718Z,51.81
2017-07-29T03:24:24.948Z,52.19
2017-07-29T03:25:35.170Z,52.07
2017-07-29T03:26:45.101Z,52
2017-07-29T03:27:55.024Z,52.09
2017-07-29T03:29:04.037Z,52.19
2017-07-29T03:30:14.277Z,51.97
2017-07-29T03:31:24.210Z,52.17
2017-07-29T03:32:34.446Z,52.17
2017-07-29T03:33:44.359Z,52.09
2017-07-29T03:34:54.598Z,52.19
2017-07-29T03:36:04.208Z,52.09
2017-07-29T03:37:14.130Z,51.81
2017-07-29T03:38:24.059Z,51.9
2017-07-29T03:39:34.274Z,51.81
2017-07-29T03:40:43.891Z,51.51
2017-07-29T03:41:54.112Z,51.61
2017-07-29T03:43:04.366Z,51.81
2017-07-29T03:44:14.272Z,52
2017-07-29T03:45:23.875Z,51.9
2017-07-29T03:46:34.091Z,52
2017-07-29T03:47:44.045Z,51.81
2017-07-29T03:48:54.268Z,51.9
2017-07-29T03:50:04.208Z,51.9
2017-07-29T03:51:14.138Z,51.81
2017-07-29T03:52:24.066Z,51.81
2017-07-29T03:53:33.688Z,51.81
2017-07-29T03:54:43.919Z,51.9
2017-07-29T03:55:53.837Z,51.81
2017-07-29T03:57:03.759Z,52
2017-07-29T03:58:13.376Z,51.9
2017-07-29T03:59:23.594Z,52
2017-07-29T04:00:33.207Z,51.61
2017-07-29T04:01:43.126Z,52.09
2017-07-29T04:02:53.048Z,52.09
2017-07-29T04:04:02.656Z,51.9
2017-07-29T04:05:12.584Z,52
2017-07-29T04:06:22.501Z,51.71
2017-07-29T04:07:32.423Z,51.71
2017-07-29T04:08:42.346Z,51.61
2017-07-29T04:09:52.570Z,51.71
2017-07-29T04:11:02.500Z,51.61
2017-07-29T04:12:12.422Z,51.32
2017-07-29T04:13:22.339Z,51.32
2017-07-29T04:14:32.277Z,51.42
2017-07-29T04:15:42.245Z,51.51
2017-07-29T04:16:52.479Z,51.42
2017-07-29T04:18:02.085Z,51.51
2017-07-29T04:19:12.337Z,51.32
2017-07-29T04:20:21.975Z,51.42
2017-07-29T04:21:31.884Z,51.42
2017-07-29T04:22:41.204Z,51.42
2017-07-29T04:23:51.141Z,51.51
2017-07-29T04:25:01.368Z,51.42
2017-07-29T04:26:11.582Z,51.42
2017-07-29T04:27:21.806Z,51.61
2017-07-29T04:28:32.041Z,51.61
2017-07-29T04:29:41.959Z,51.03
2017-07-29T04:30:51.881Z,51.32
2017-07-29T04:32:01.829Z,51.23
2017-07-29T04:33:11.603Z,51.23
2017-07-29T04:34:21.871Z,51.42
2017-07-29T04:35:31.792Z,51.42
2017-07-29T04:36:41.705Z,51.42
2017-07-29T04:37:51.330Z,51.32
2017-07-29T04:39:01.553Z,51.32
2017-07-29T04:40:11.483Z,51.32
2017-07-29T04:41:21.441Z,51.42
2017-07-29T04:42:31.681Z,50.93
2017-07-29T04:43:41.598Z,50.93
2017-07-29T04:44:51.819Z,51.42
2017-07-29T04:46:01.444Z,51.32
2017-07-29T04:47:10.771Z,51.32
2017-07-29T04:48:20.997Z,50.84
2017-07-29T04:49:30.912Z,50.93
2017-07-29T04:50:41.141Z,51.03
2017-07-29T04:51:50.441Z,51.13
2017-07-29T04:52:59.742Z,51.13
2017-07-29T04:54:09.982Z,51.13
2017-07-29T04:55:19.592Z,51.13
2017-07-29T04:56:29.814Z,51.03
2017-07-29T04:57:40.044Z,51.13
2017-07-29T04:58:50.287Z,51.13
2017-07-29T05:00:00.544Z,51.13
2017-07-29T05:01:10.764Z,51.13
2017-07-29T05:02:20.683Z,51.32
2017-07-29T05:03:29.991Z,51.42
2017-07-29T05:04:39.914Z,51.42
2017-07-29T05:05:49.826Z,51.23
2017-07-29T05:06:59.439Z,51.32
2017-07-29T05:08:09.395Z,51.23
2017-07-29T05:09:19.023Z,51.42
2017-07-29T05:10:28.639Z,51.23
2017-07-29T05:11:38.564Z,51.42
2017-07-29T05:12:48.474Z,51.03
2017-07-29T05:13:58.720Z,51.13
2017-07-29T05:15:08.326Z,51.03
2017-07-29T05:16:18.252Z,50.74
2017-07-29T05:17:28.481Z,51.03
2017-07-29T05:18:37.787Z,51.03
2017-07-29T05:19:48.010Z,50.93
2017-07-29T05:20:57.928Z,50.74
2017-07-29T05:22:07.548Z,50.74
2017-07-29T05:23:17.782Z,50.76
2017-07-29T05:24:27.391Z,50.67
2017-07-29T05:25:37.301Z,50.65
2017-07-29T05:26:47.526Z,50.76
2017-07-29T05:27:57.441Z,50.96
2017-07-29T05:29:07.057Z,50.96
2017-07-29T05:30:17.295Z,50.76
2017-07-29T05:31:27.531Z,50.76
2017-07-29T05:32:36.824Z,50.74
2017-07-29T05:33:46.146Z,50.76
2017-07-29T05:34:56.059Z,50.76
2017-07-29T05:36:05.981Z,50.86
2017-07-29T05:37:15.913Z,50.76
2017-07-29T05:38:25.841Z,50.76
2017-07-29T05:39:36.095Z,51.06
2017-07-29T05:40:46.025Z,51.06
2017-07-29T05:41:55.951Z,50.67
2017-07-29T05:43:05.868Z,50.86
2017-07-29T05:44:15.785Z,50.18
2017-07-29T05:45:25.143Z,50.48
2017-07-29T05:46:35.401Z,50.48
2017-07-29T05:47:45.620Z,50.18
2017-07-29T05:48:55.850Z,50.38
2017-07-29T05:50:05.203Z,50.48
2017-07-29T05:51:15.428Z,50.18
2017-07-29T05:52:25.647Z,50.12
2017-07-29T05:53:35.572Z,50.4
2017-07-29T05:54:45.485Z,50.21
2017-07-29T05:55:55.152Z,50.02
2017-07-29T05:57:04.787Z,49.92
2017-07-29T05:58:14.411Z,49.73
2017-07-29T05:59:24.644Z,49.82
2017-07-29T06:00:34.876Z,49.54
2017-07-29T06:01:44.483Z,49.73
2017-07-29T06:02:54.728Z,49.92
2017-07-29T06:04:04.977Z,50.21
2017-07-29T06:05:14.896Z,49.82
2017-07-29T06:06:25.114Z,50.02
2017-07-29T06:07:35.023Z,49.73
2017-07-29T06:08:45.266Z,49.63
2017-07-29T06:09:55.494Z,49.34
2017-07-29T06:11:05.425Z,49.24
2017-07-29T06:12:15.044Z,49.24
2017-07-29T06:13:24.965Z,48.95
2017-07-29T06:14:34.896Z,48.97
2017-07-29T06:15:45.123Z,48.59
2017-07-29T06:16:55.345Z,48.97
2017-07-29T06:18:04.650Z,48.97
2017-07-29T06:19:14.570Z,48.79
2017-07-29T06:20:24.813Z,48.97
2017-07-29T06:21:34.736Z,48.97
2017-07-29T06:22:44.344Z,48.97
2017-07-29T06:23:54.569Z,49.27
2017-07-29T06:25:04.788Z,49.27
2017-07-29T06:26:15.025Z,49.27
2017-07-29T06:27:24.960Z,49.07
2017-07-29T06:28:34.885Z,49.27
2017-07-29T06:29:44.813Z,48.97
2017-07-29T06:30:55.055Z,49.24
2017-07-29T06:32:04.674Z,48.88
2017-07-29T06:33:14.913Z,48.88
2017-07-29T06:34:25.149Z,48.88
2017-07-29T06:35:35.080Z,48.97
2017-07-29T06:36:44.683Z,48.97
2017-07-29T06:37:54.611Z,49.07
2017-07-29T06:39:04.235Z,48.88
2017-07-29T06:40:14.149Z,48.79
2017-07-29T06:41:24.376Z,49.07
2017-07-29T06:42:33.682Z,49.07
2017-07-29T06:43:43.924Z,48.39
2017-07-29T06:44:53.842Z,48.52
2017-07-29T06:46:03.454Z,48.52
2017-07-29T06:47:13.390Z,48.71
2017-07-29T06:48:23.331Z,48.71
2017-07-29T06:49:33.539Z,48.81
2017-07-29T06:50:43.495Z,48.81
2017-07-29T06:51:53.119Z,48.71
2017-07-29T06:53:03.369Z,48.71
2017-07-29T06:54:12.669Z,48.61
2017-07-29T06:55:22.307Z,48.9
2017-07-29T06:56:31.914Z,49
2017-07-29T06:57:41.547Z,48.81
2017-07-29T06:58:51.476Z,48.79
2017-07-29T07:00:01.388Z,48.88
2017-07-29T07:01:11.313Z,48.69
2017-07-29T07:02:21.233Z,49
2017-07-29T07:03:31.163Z,48.97
2017-07-29T07:04:40.469Z,49.07
2017-07-29T07:05:50.408Z,48.97
2017-07-29T07:07:00.342Z,48.97
2017-07-29T07:08:10.273Z,48.88
2017-07-29T07:09:19.890Z,48.81
2017-07-29T07:10:30.123Z,48.88
2017-07-29T07:11:40.039Z,48.61
2017-07-29T07:12:50.267Z,47.47
2017-07-29T07:14:00.499Z,45.85
2017-07-29T07:15:10.106Z,45.29
2017-07-29T07:16:19.733Z,44.05
2017-07-29T07:17:29.963Z,43.2
2017-07-29T07:18:39.577Z,42.66
2017-07-29T07:19:49.498Z,42.29
2017-07-29T07:20:59.737Z,40.95
2017-07-29T07:22:09.354Z,40.88
2017-07-29T07:23:18.999Z,39.92
2017-07-29T07:24:28.606Z,39.34
2017-07-29T07:25:38.521Z,38.69
2017-07-29T07:26:48.461Z,38.2
2017-07-29T07:27:58.094Z,38.12
2017-07-29T07:29:07.788Z,37.95
2017-07-29T07:30:18.050Z,37.37
2017-07-29T07:31:27.989Z,37.19
2017-07-29T07:32:38.215Z,37.21
2017-07-29T07:33:48.728Z,36.62
2017-07-29T07:34:58.970Z,36.05
2017-07-29T07:36:10.240Z,35.87
2017-07-29T07:37:20.152Z,35.38
2017-07-29T07:38:29.767Z,35.11
2017-07-29T07:39:39.679Z,34.64
2017-07-29T07:40:49.909Z,34.75
2017-07-29T07:42:00.136Z,34.45
2017-07-29T07:43:10.368Z,33.98
2017-07-29T07:44:20.586Z,33.69
2017-07-29T07:45:30.815Z,33.61
2017-07-29T07:46:41.049Z,33.41
2017-07-29T07:47:51.653Z,33.14
2017-07-29T07:49:01.573Z,33.05
2017-07-29T07:50:11.798Z,32.95
2017-07-29T07:51:22.012Z,32.66
2017-07-29T07:52:32.249Z,32.48
2017-07-29T07:53:42.188Z,32.2
2017-07-29T07:54:51.797Z,32.01
2017-07-29T07:56:02.027Z,32.12
2017-07-29T07:57:12.305Z,31.82
2017-07-29T07:58:22.544Z,31.63
2017-07-29T07:59:32.765Z,31.35
2017-07-29T08:00:43.011Z,31.36
2017-07-29T08:01:52.630Z,31.07
2017-07-29T08:03:02.537Z,31.16
2017-07-29T08:04:12.451Z,32.05
2017-07-29T08:05:21.752Z,32.71
2017-07-29T08:06:31.977Z,34.26
2017-07-29T08:07:41.922Z,34.81
2017-07-29T08:08:51.914Z,35.76
2017-07-29T08:10:03.088Z,35.55
2017-07-29T08:11:12.703Z,36.14
2017-07-29T08:12:22.943Z,35.85
2017-07-29T08:13:32.874Z,36.24
2017-07-29T08:14:42.802Z,37
2017-07-29T08:15:52.722Z,37.87
2017-07-29T08:17:02.645Z,38.12
2017-07-29T08:18:12.254Z,38.89
2017-07-29T08:19:22.485Z,40.04
2017-07-29T08:20:32.426Z,40.33
2017-07-29T08:21:42.356Z,41.09
2017-07-29T08:22:52.281Z,41.46
2017-07-29T08:24:02.192Z,41.83
2017-07-29T08:25:12.412Z,42
2017-07-29T08:26:22.338Z,42.79
2017-07-29T08:27:32.654Z,42.66
2017-07-29T08:28:41.955Z,43.15
2017-07-29T08:29:51.877Z,43.33
2017-07-29T08:31:01.484Z,43.91
2017-07-29T08:32:11.397Z,43.91
2017-07-29T08:33:20.696Z,44.09
2017-07-29T08:34:30.308Z,44.48
2017-07-29T08:35:40.255Z,44.45
2017-07-29T08:36:49.557Z,45.14
2017-07-29T08:37:59.193Z,45.14
2017-07-29T08:39:08.815Z,45.14
2017-07-29T08:40:19.037Z,44.45
2017-07-29T08:41:29.263Z,44.55
2017-07-29T08:42:39.493Z,44.45
2017-07-29T08:43:49.100Z,44.84
2017-07-29T08:44:59.034Z,44.94
2017-07-29T08:46:08.327Z,45.42
2017-07-29T08:47:17.966Z,45.4
2017-07-29T08:48:27.893Z,45.21
2017-07-29T08:49:38.108Z,45.6
2017-07-29T08:50:48.044Z,45.89
2017-07-29T08:51:57.648Z,45.6
2017-07-29T08:53:06.963Z,45.28
2017-07-29T08:54:16.586Z,45.6
2017-07-29T08:55:26.504Z,45.87
2017-07-29T08:56:36.729Z,45.09
2017-07-29T08:57:46.949Z,44.53
2017-07-29T08:58:57.241Z,44.45
2017-07-29T09:00:06.554Z,44.26
2017-07-29T09:01:16.155Z,44.35
2017-07-29T09:02:25.468Z,44.55
2017-07-29T09:03:35.394Z,44.55
2017-07-29T09:04:45.313Z,44.35
2017-07-29T09:05:55.546Z,44.45
2017-07-29T09:07:05.156Z,44.55
2017-07-29T09:08:15.390Z,44.94
2017-07-29T09:09:24.999Z,45.01
2017-07-29T09:10:34.908Z,45.01
2017-07-29T09:11:45.145Z,44.92
2017-07-29T09:12:54.759Z,45.11
2017-07-29T09:14:05.013Z,45.21
2017-07-29T09:15:14.983Z,45.4
2017-07-29T09:16:24.907Z,45.67
2017-07-29T09:17:35.119Z,45.57
2017-07-29T09:18:45.067Z,45.57
2017-07-29T09:19:55.463Z,46.15
2017-07-29T09:21:05.613Z,46.06
2017-07-29T09:22:16.538Z,45.87
2017-07-29T09:23:27.070Z,46.23
2017-07-29T09:24:37.031Z,46.14
2017-07-29T09:25:46.944Z,46.42
2017-07-29T09:26:56.873Z,46.42
2017-07-29T09:28:06.782Z,46.81
2017-07-29T09:29:16.693Z,46.72
2017-07-29T09:30:26.937Z,46.91
2017-07-29T09:31:36.873Z,46.62
2017-07-29T09:32:46.507Z,46.91
2017-07-29T09:33:56.424Z,46.69
2017-07-29T09:35:06.346Z,47.18
2017-07-29T09:36:15.944Z,46.98
2017-07-29T09:37:25.564Z,46.98
2017-07-29T09:38:35.503Z,46.79
2017-07-29T09:39:45.743Z,47.47
2017-07-29T09:40:55.350Z,47.38
2017-07-29T09:42:05.268Z,47.38
2017-07-29T09:43:15.187Z,47.45
2017-07-29T09:44:25.425Z,47.83
2017-07-29T09:45:35.046Z,47.83
2017-07-29T09:46:44.981Z,48.03
2017-07-29T09:47:54.897Z,48.03
2017-07-29T09:49:04.813Z,48.61
2017-07-29T09:50:14.437Z,48.52
2017-07-29T09:51:24.358Z,48.2
2017-07-29T09:52:33.969Z,48.3
2017-07-29T09:53:43.878Z,48.3
2017-07-29T09:54:54.112Z,48.3
2017-07-29T09:56:04.049Z,48.39
2017-07-29T09:57:14.293Z,48.49
2017-07-29T09:58:23.909Z,48.39
2017-07-29T09:59:34.132Z,48.39
2017-07-29T10:00:44.055Z,48.3
2017-07-29T10:01:54.299Z,48.3
2017-07-29T10:03:04.527Z,48.49
2017-07-29T10:04:13.832Z,48.78
2017-07-29T10:05:24.077Z,48.49
2017-07-29T10:06:34.328Z,48.85
2017-07-29T10:07:44.558Z,48.76
2017-07-29T10:08:54.503Z,48.66
2017-07-29T10:10:04.762Z,48.57
2017-07-29T10:11:14.373Z,48.57
2017-07-29T10:12:24.599Z,48.57
2017-07-29T10:13:34.240Z,48.85
2017-07-29T10:14:43.886Z,48.66
2017-07-29T10:15:53.801Z,48.76
2017-07-29T10:17:04.070Z,48.85
2017-07-29T10:18:13.687Z,48.85
2017-07-29T10:19:23.000Z,48.85
2017-07-29T10:20:33.256Z,48.76
2017-07-29T10:21:43.480Z,48.85
2017-07-29T10:22:53.705Z,48.85
2017-07-29T10:24:03.936Z,49.05
2017-07-29T10:25:13.552Z,48.76
2017-07-29T10:26:23.797Z,48.66
2017-07-29T10:27:34.039Z,48.57
2017-07-29T10:28:44.256Z,48.47
2017-07-29T10:29:53.547Z,48.27
2017-07-29T10:31:03.479Z,48.27
2017-07-29T10:32:13.409Z,48.27
2017-07-29T10:33:23.020Z,48.47
2017-07-29T10:34:32.966Z,48.66
2017-07-29T10:35:42.327Z,48.37
2017-07-29T10:36:51.957Z,48.27
2017-07-29T10:38:01.871Z,48.37
2017-07-29T10:39:12.109Z,48.57
2017-07-29T10:40:22.044Z,48.3
2017-07-29T10:41:31.370Z,48.57
2017-07-29T10:42:41.604Z,48.27
2017-07-29T10:43:51.554Z,48.47
2017-07-29T10:45:01.780Z,48.37
2017-07-29T10:46:12.010Z,48.37
2017-07-29T10:47:21.019Z,48.37
2017-07-29T10:48:30.932Z,48.57
2017-07-29T10:49:40.861Z,48.27
2017-07-29T10:50:50.785Z,48.66
2017-07-29T10:52:00.722Z,48.37
2017-07-29T10:53:10.327Z,48.37
2017-07-29T10:54:20.553Z,48.37
2017-07-29T10:55:30.477Z,48.47
2017-07-29T10:56:40.099Z,48.66
2017-07-29T10:57:50.025Z,48.47
2017-07-29T10:58:59.634Z,48.37
2017-07-29T11:00:09.258Z,48.37
2017-07-29T11:01:19.174Z,48.47
2017-07-29T11:02:29.405Z,48.57
2017-07-29T11:03:39.016Z,48.27
2017-07-29T11:04:48.331Z,48.47
2017-07-29T11:05:58.269Z,48.47
2017-07-29T11:07:07.881Z,48.57
2017-07-29T11:08:18.099Z,48.18
2017-07-29T11:09:28.028Z,48.47
2017-07-29T11:10:37.648Z,48.47
2017-07-29T11:11:46.979Z,48.47
2017-07-29T11:12:56.575Z,48.76
2017-07-29T11:14:06.191Z,48.47
2017-07-29T11:15:15.806Z,48.18
2017-07-29T11:16:25.717Z,48.08
2017-07-29T11:17:35.937Z,48.08
2017-07-29T11:18:45.570Z,48.08
2017-07-29T11:19:55.176Z,48.08
2017-07-29T11:21:04.482Z,47.89
2017-07-29T11:22:14.092Z,47.89
2017-07-29T11:23:23.705Z,47.98
2017-07-29T11:24:33.985Z,47.79
2017-07-29T11:25:43.322Z,47.98
2017-07-29T11:26:53.238Z,48.08
2017-07-29T11:28:03.148Z,48.57
2017-07-29T11:29:13.374Z,48.66
2017-07-29T11:30:23.644Z,48.18
2017-07-29T11:31:32.949Z,48.08
2017-07-29T11:32:42.861Z,47.98
2017-07-29T11:33:52.788Z,47.79
2017-07-29T11:35:03.030Z,47.79
2017-07-29T11:36:12.370Z,47.79
2017-07-29T11:37:22.311Z,47.98
2017-07-29T11:38:32.242Z,48.18
2017-07-29T11:39:41.870Z,48.57
2017-07-29T11:40:52.124Z,48.57
2017-07-29T11:42:02.347Z,48.47
2017-07-29T11:43:12.369Z,48.47
2017-07-29T11:44:21.992Z,48.18
2017-07-29T11:45:31.919Z,48.27
2017-07-29T11:46:41.535Z,48.66
2017-07-29T11:47:51.475Z,48.57
2017-07-29T11:49:01.701Z,48.85
2017-07-29T11:50:11.992Z,48.85
2017-07-29T11:51:22.223Z,49.05
2017-07-29T11:52:31.860Z,48.76
2017-07-29T11:53:41.788Z,48.76
2017-07-29T11:54:51.440Z,48.85
2017-07-29T11:56:00.765Z,48.85
2017-07-29T11:57:10.725Z,48.85
2017-07-29T11:58:20.339Z,48.66
2017-07-29T11:59:30.243Z,48.76
2017-07-29T12:00:40.463Z,48.66
2017-07-29T12:01:50.114Z,48.76
2017-07-29T12:03:00.050Z,48.66
2017-07-29T12:04:10.285Z,48.57
2017-07-29T12:05:20.203Z,48.66
2017-07-29T12:06:29.516Z,48.47
2017-07-29T12:07:39.144Z,48.57
2017-07-29T12:08:49.116Z,48.47
2017-07-29T12:09:59.332Z,48.66
2017-07-29T12:11:08.951Z,48.57
2017-07-29T12:12:19.177Z,48.66
2017-07-29T12:13:29.413Z,48.57
2017-07-29T12:14:39.659Z,48.47
2017-07-29T12:15:49.586Z,48.37
2017-07-29T12:16:59.198Z,48.66
2017-07-29T12:18:09.112Z,48.57
2017-07-29T12:19:19.020Z,48.66
2017-07-29T12:20:28.942Z,48.27
2017-07-29T12:21:39.152Z,48.66
2017-07-29T12:22:49.378Z,48.57
2017-07-29T12:23:59.599Z,48.66
2017-07-29T12:25:09.822Z,48.27
2017-07-29T12:26:19.761Z,48.57
2017-07-29T12:27:29.067Z,47.98
2017-07-29T12:28:39.292Z,48.66
2017-07-29T12:29:49.213Z,47.98
2017-07-29T12:30:59.134Z,48.66
2017-07-29T12:32:09.058Z,48.27
2017-07-29T12:33:18.997Z,48.27
2017-07-29T12:34:28.901Z,48.57
2017-07-29T12:35:38.192Z,48.47
2017-07-29T12:36:48.426Z,48.18
2017-07-29T12:37:58.671Z,48.57
2017-07-29T12:39:08.288Z,48.47
2017-07-29T12:40:18.911Z,48.1
2017-07-29T12:41:29.142Z,48.39
2017-07-29T12:42:39.355Z,48.57
2017-07-29T12:43:48.971Z,48.59
2017-07-29T12:44:59.198Z,48.27
2017-07-29T12:46:08.817Z,48.47
2017-07-29T12:47:19.126Z,48.39
2017-07-29T12:48:29.291Z,48
2017-07-29T12:49:38.908Z,48.47
2017-07-29T12:50:48.825Z,48.47
2017-07-29T12:51:58.740Z,48.47
2017-07-29T12:53:08.360Z,48.59
2017-07-29T12:54:18.579Z,48.57
2017-07-29T12:55:27.898Z,48.69
2017-07-29T12:56:37.539Z,48.59
2017-07-29T12:57:47.791Z,48.76
2017-07-29T12:58:58.059Z,48.76
2017-07-29T13:00:07.674Z,48.88
2017-07-29T13:01:16.975Z,48.76
2017-07-29T13:02:26.925Z,48.47
2017-07-29T13:03:37.153Z,49.05
2017-07-29T13:04:46.773Z,48.88
2017-07-29T13:05:56.388Z,48.85
2017-07-29T13:07:06.006Z,48.66
2017-07-29T13:08:16.214Z,48.76
2017-07-29T13:09:25.824Z,48.88
2017-07-29T13:10:36.056Z,48.76
2017-07-29T13:11:46.286Z,48.57
2017-07-29T13:12:56.204Z,48.88
2017-07-29T13:14:06.122Z,48.49
2017-07-29T13:15:16.061Z,49.07
2017-07-29T13:16:25.966Z,48.59
2017-07-29T13:17:36.274Z,48.97
2017-07-29T13:18:45.874Z,48.97
2017-07-29T13:19:56.100Z,48.69
2017-07-29T13:21:06.339Z,48.88
2017-07-29T13:22:15.334Z,48.88
2017-07-29T13:23:25.002Z,48.78
2017-07-29T13:24:34.914Z,48.78
2017-07-29T13:25:44.845Z,48.78
2017-07-29T13:26:55.075Z,48.85
2017-07-29T13:28:04.992Z,48.95
2017-07-29T13:29:14.306Z,48.57
2017-07-29T13:30:24.551Z,49.15
2017-07-29T13:31:34.483Z,49.15
2017-07-29T13:32:44.104Z,49.15
2017-07-29T13:33:54.016Z,48.76
2017-07-29T13:35:04.242Z,48.85
2017-07-29T13:36:14.162Z,49.15
2017-07-29T13:37:24.070Z,48.85
2017-07-29T13:38:33.999Z,48.95
2017-07-29T13:39:43.912Z,48.85
2017-07-29T13:40:53.216Z,48.85
2017-07-29T13:42:03.446Z,48.95
2017-07-29T13:43:13.073Z,48.95
2017-07-29T13:44:22.390Z,48.85
2017-07-29T13:45:32.320Z,48.85
2017-07-29T13:46:42.241Z,48.95
2017-07-29T13:47:52.166Z,48.95
2017-07-29T13:49:02.099Z,48.85
2017-07-29T13:50:12.327Z,48.95
2017-07-29T13:51:21.945Z,48.85
2017-07-29T13:52:31.854Z,48.85
2017-07-29T13:53:41.774Z,49.05
2017-07-29T13:54:51.690Z,48.66
2017-07-29T13:56:01.924Z,48.85
2017-07-29T13:57:11.548Z,48.85
2017-07-29T13:58:21.462Z,49.05
2017-07-29T13:59:31.401Z,49.07
2017-07-29T14:00:41.016Z,49.05
2017-07-29T14:01:50.946Z,49.05
2017-07-29T14:03:01.174Z,49.05
2017-07-29T14:04:11.091Z,49.05
2017-07-29T14:05:21.025Z,49.05
2017-07-29T14:06:30.944Z,48.95
2017-07-29T14:07:40.287Z,49.07
2017-07-29T14:08:50.213Z,48.66
2017-07-29T14:10:00.162Z,49.17
2017-07-29T14:11:09.783Z,48.69
2017-07-29T14:12:19.754Z,48.97
2017-07-29T14:13:29.678Z,48.97
2017-07-29T14:14:39.612Z,48.69
2017-07-29T14:15:49.229Z,48.78
2017-07-29T14:16:59.476Z,48.78
2017-07-29T14:18:09.400Z,48.78
2017-07-29T14:19:19.323Z,48.97
2017-07-29T14:20:29.243Z,49.07
2017-07-29T14:21:39.182Z,48.88
2017-07-29T14:22:49.416Z,48.97
2017-07-29T14:23:59.021Z,48.97
2017-07-29T14:25:08.969Z,48.97
2017-07-29T14:26:18.887Z,48.78
2017-07-29T14:27:29.116Z,48.69
2017-07-29T14:28:39.048Z,48.69
2017-07-29T14:29:48.952Z,48.78
2017-07-29T14:30:59.177Z,49.37
2017-07-29T14:32:09.413Z,48.88
2017-07-29T14:33:19.326Z,48.97
2017-07-29T14:34:29.274Z,48.88
2017-07-29T14:35:39.194Z,48.88
2017-07-29T14:36:49.408Z,48.78
2017-07-29T14:37:59.643Z,48.78
2017-07-29T14:39:09.867Z,48.78
2017-07-29T14:40:19.498Z,48.97
2017-07-29T14:41:29.108Z,48.78
2017-07-29T14:42:39.032Z,48.88
2017-07-29T14:43:48.989Z,48.78
2017-07-29T14:44:58.901Z,48.78
2017-07-29T14:46:09.129Z,49.27
2017-07-29T14:47:19.060Z,48.88
2017-07-29T14:48:29.280Z,49.27
2017-07-29T14:49:39.200Z,48.88
2017-07-29T14:50:49.134Z,48.88
2017-07-29T14:51:59.357Z,49.37
2017-07-29T14:53:08.971Z,48.88
2017-07-29T14:54:19.192Z,48.69
2017-07-29T14:55:29.415Z,48.69
2017-07-29T14:56:39.333Z,48.71
2017-07-29T14:57:48.943Z,48.78
2017-07-29T14:58:59.165Z,49.17
2017-07-29T15:00:09.467Z,49.07
2017-07-29T15:01:19.073Z,48.97
2017-07-29T15:02:29.307Z,49.37
2017-07-29T15:03:39.249Z,49.07
2017-07-29T15:04:49.169Z,49.17
2017-07-29T15:05:59.095Z,49.07
2017-07-29T15:07:09.325Z,48.97
2017-07-29T15:08:19.584Z,49.27
2017-07-29T15:09:29.526Z,49.27
2017-07-29T15:10:39.772Z,49.37
2017-07-29T15:11:50.023Z,49.46
2017-07-29T15:12:59.323Z,49.17
2017-07-29T15:14:08.927Z,49.37
2017-07-29T15:15:19.146Z,49.27
2017-07-29T15:16:28.752Z,49.37
2017-07-29T15:17:38.979Z,49.75
2017-07-29T15:18:48.591Z,49.46
2017-07-29T15:19:58.505Z,49.95
2017-07-29T15:21:08.739Z,49.85
2017-07-29T15:22:18.652Z,49.85
2017-07-29T15:23:28.566Z,49.85
2017-07-29T15:24:38.791Z,49.75
2017-07-29T15:25:48.412Z,49.85
2017-07-29T15:26:58.019Z,49.75
2017-07-29T15:28:08.243Z,49.75
2017-07-29T15:29:17.872Z,49.75
2017-07-29T15:30:27.790Z,49.75
2017-07-29T15:31:37.418Z,49.75
2017-07-29T15:32:47.641Z,49.75
2017-07-29T15:33:56.947Z,49.85